Flugplatz Meppe Airport

Bericht für ETWM

vom 14.11. um 04:20 UTC

Wind 3 kt aus 190°

Sichtweite 800 m

Temperatur 6.0°C

Taupunkt 6.0°C

Luftfeuchtigkeit 100%

Luftdruck 1027 hPa

ETWM 140420Z AUTO 19003KT 0750 // ////// 06/06 Q1027 ///
Keine Prognose (TAF) verfügbar.
Impressum